sensor_id;sensor_type;location;lat;lon;timestamp;P1;durP1;ratioP1;P2;durP2;ratioP2
4517;SDS011;2271;49.464;11.070;2023-07-24T00:01:08;6.40;;;4.13;;
4517;SDS011;2271;49.464;11.070;2023-07-24T00:03:34;7.47;;;4.35;;
4517;SDS011;2271;49.464;11.070;2023-07-24T00:06:00;5.90;;;4.82;;
4517;SDS011;2271;49.464;11.070;2023-07-24T00:08:26;6.32;;;4.40;;
4517;SDS011;2271;49.464;11.070;2023-07-24T00:10:52;6.80;;;5.03;;
4517;SDS011;2271;49.464;11.070;2023-07-24T00:13:17;11.23;;;5.28;;
4517;SDS011;2271;49.464;11.070;2023-07-24T00:15:43;9.77;;;5.50;;
4517;SDS011;2271;49.464;11.070;2023-07-24T00:18:08;8.90;;;5.07;;
4517;SDS011;2271;49.464;11.070;2023-07-24T00:20:34;9.18;;;5.38;;
4517;SDS011;2271;49.464;11.070;2023-07-24T00:23:00;7.57;;;4.97;;
4517;SDS011;2271;49.464;11.070;2023-07-24T00:25:25;6.85;;;4.72;;
4517;SDS011;2271;49.464;11.070;2023-07-24T00:27:51;7.60;;;4.43;;
4517;SDS011;2271;49.464;11.070;2023-07-24T00:30:16;11.05;;;4.93;;
4517;SDS011;2271;49.464;11.070;2023-07-24T00:32:42;8.00;;;5.05;;
4517;SDS011;2271;49.464;11.070;2023-07-24T00:35:08;8.07;;;4.43;;
4517;SDS011;2271;49.464;11.070;2023-07-24T00:37:33;7.00;;;4.57;;
4517;SDS011;2271;49.464;11.070;2023-07-24T00:39:59;7.07;;;4.28;;
4517;SDS011;2271;49.464;11.070;2023-07-24T00:42:25;6.22;;;4.53;;
4517;SDS011;2271;49.464;11.070;2023-07-24T00:44:50;8.55;;;5.63;;
4517;SDS011;2271;49.464;11.070;2023-07-24T00:47:16;9.02;;;4.85;;
4517;SDS011;2271;49.464;11.070;2023-07-24T00:49:42;5.75;;;4.50;;
4517;SDS011;2271;49.464;11.070;2023-07-24T00:52:09;6.75;;;4.88;;
4517;SDS011;2271;49.464;11.070;2023-07-24T00:54:35;6.78;;;4.38;;
4517;SDS011;2271;49.464;11.070;2023-07-24T00:57:00;8.07;;;4.50;;
4517;SDS011;2271;49.464;11.070;2023-07-24T00:59:27;8.75;;;4.70;;
4517;SDS011;2271;49.464;11.070;2023-07-24T01:01:52;7.55;;;5.10;;
4517;SDS011;2271;49.464;11.070;2023-07-24T01:04:18;8.10;;;4.78;;
4517;SDS011;2271;49.464;11.070;2023-07-24T01:06:44;8.07;;;5.03;;
4517;SDS011;2271;49.464;11.070;2023-07-24T01:09:10;5.90;;;4.07;;
4517;SDS011;2271;49.464;11.070;2023-07-24T01:11:37;6.28;;;4.53;;
4517;SDS011;2271;49.464;11.070;2023-07-24T01:14:27;7.38;;;5.03;;
4517;SDS011;2271;49.464;11.070;2023-07-24T01:16:59;8.05;;;5.65;;
4517;SDS011;2271;49.464;11.070;2023-07-24T01:22:02;10.38;;;5.63;;
4517;SDS011;2271;49.464;11.070;2023-07-24T01:27:40;7.85;;;5.25;;
4517;SDS011;2271;49.464;11.070;2023-07-24T01:30:09;11.88;;;5.97;;
4517;SDS011;2271;49.464;11.070;2023-07-24T01:32:35;9.35;;;5.30;;
4517;SDS011;2271;49.464;11.070;2023-07-24T01:35:01;8.20;;;5.18;;
4517;SDS011;2271;49.464;11.070;2023-07-24T01:37:27;8.23;;;5.70;;
4517;SDS011;2271;49.464;11.070;2023-07-24T01:39:53;9.18;;;5.55;;
4517;SDS011;2271;49.464;11.070;2023-07-24T01:42:21;5.82;;;4.55;;
4517;SDS011;2271;49.464;11.070;2023-07-24T01:44:54;7.07;;;5.15;;
4517;SDS011;2271;49.464;11.070;2023-07-24T01:47:20;8.23;;;5.15;;
4517;SDS011;2271;49.464;11.070;2023-07-24T01:49:46;10.35;;;5.65;;
4517;SDS011;2271;49.464;11.070;2023-07-24T01:52:12;8.75;;;5.30;;
4517;SDS011;2271;49.464;11.070;2023-07-24T01:54:38;8.90;;;5.68;;
4517;SDS011;2271;49.464;11.070;2023-07-24T01:57:04;8.20;;;5.07;;
4517;SDS011;2271;49.464;11.070;2023-07-24T01:59:29;8.10;;;5.45;;
4517;SDS011;2271;49.464;11.070;2023-07-24T02:01:55;7.18;;;4.28;;
4517;SDS011;2271;49.464;11.070;2023-07-24T02:04:21;8.65;;;5.40;;
4517;SDS011;2271;49.464;11.070;2023-07-24T02:06:50;8.27;;;5.90;;
4517;SDS011;2271;49.464;11.070;2023-07-24T02:09:17;7.65;;;5.63;;
4517;SDS011;2271;49.464;11.070;2023-07-24T02:11:43;10.63;;;6.20;;
4517;SDS011;2271;49.464;11.070;2023-07-24T02:14:11;8.80;;;5.70;;
4517;SDS011;2271;49.464;11.070;2023-07-24T02:16:38;10.35;;;5.43;;
4517;SDS011;2271;49.464;11.070;2023-07-24T02:19:03;9.65;;;6.22;;
4517;SDS011;2271;49.464;11.070;2023-07-24T02:21:30;10.25;;;5.55;;
4517;SDS011;2271;49.464;11.070;2023-07-24T02:23:56;8.07;;;5.70;;
4517;SDS011;2271;49.464;11.070;2023-07-24T02:26:21;8.05;;;5.70;;
4517;SDS011;2271;49.464;11.070;2023-07-24T02:28:47;9.38;;;6.10;;
4517;SDS011;2271;49.464;11.070;2023-07-24T02:31:13;8.30;;;5.28;;
4517;SDS011;2271;49.464;11.070;2023-07-24T02:33:38;10.77;;;6.07;;
4517;SDS011;2271;49.464;11.070;2023-07-24T02:36:04;8.68;;;6.28;;
4517;SDS011;2271;49.464;11.070;2023-07-24T02:38:29;8.65;;;5.65;;
4517;SDS011;2271;49.464;11.070;2023-07-24T02:40:55;11.27;;;6.30;;
4517;SDS011;2271;49.464;11.070;2023-07-24T02:43:21;9.00;;;6.07;;
4517;SDS011;2271;49.464;11.070;2023-07-24T02:45:46;11.07;;;6.90;;
4517;SDS011;2271;49.464;11.070;2023-07-24T02:48:12;9.82;;;6.30;;
4517;SDS011;2271;49.464;11.070;2023-07-24T02:50:38;7.95;;;5.65;;
4517;SDS011;2271;49.464;11.070;2023-07-24T02:53:03;9.65;;;6.00;;
4517;SDS011;2271;49.464;11.070;2023-07-24T02:55:29;10.52;;;6.15;;
4517;SDS011;2271;49.464;11.070;2023-07-24T02:57:55;9.50;;;6.30;;
4517;SDS011;2271;49.464;11.070;2023-07-24T03:00:21;8.73;;;5.82;;
4517;SDS011;2271;49.464;11.070;2023-07-24T03:02:46;11.90;;;5.90;;
4517;SDS011;2271;49.464;11.070;2023-07-24T03:05:12;9.93;;;6.03;;
4517;SDS011;2271;49.464;11.070;2023-07-24T03:07:37;11.77;;;6.25;;
4517;SDS011;2271;49.464;11.070;2023-07-24T03:10:03;9.20;;;5.88;;
4517;SDS011;2271;49.464;11.070;2023-07-24T03:12:29;12.43;;;6.05;;
4517;SDS011;2271;49.464;11.070;2023-07-24T03:14:55;9.98;;;6.32;;
4517;SDS011;2271;49.464;11.070;2023-07-24T03:17:21;8.95;;;6.13;;
4517;SDS011;2271;49.464;11.070;2023-07-24T03:19:48;9.10;;;6.30;;
4517;SDS011;2271;49.464;11.070;2023-07-24T03:22:14;12.45;;;6.78;;
4517;SDS011;2271;49.464;11.070;2023-07-24T03:24:39;11.48;;;6.78;;
4517;SDS011;2271;49.464;11.070;2023-07-24T03:27:05;9.65;;;6.28;;
4517;SDS011;2271;49.464;11.070;2023-07-24T03:29:31;9.63;;;6.70;;
4517;SDS011;2271;49.464;11.070;2023-07-24T03:31:56;12.38;;;7.18;;
4517;SDS011;2271;49.464;11.070;2023-07-24T03:34:22;10.40;;;6.70;;
4517;SDS011;2271;49.464;11.070;2023-07-24T03:36:48;10.52;;;6.68;;
4517;SDS011;2271;49.464;11.070;2023-07-24T03:39:13;8.07;;;5.40;;
4517;SDS011;2271;49.464;11.070;2023-07-24T03:41:40;8.68;;;5.97;;
4517;SDS011;2271;49.464;11.070;2023-07-24T03:44:07;10.70;;;6.57;;
4517;SDS011;2271;49.464;11.070;2023-07-24T03:46:32;9.93;;;6.72;;
4517;SDS011;2271;49.464;11.070;2023-07-24T03:48:58;7.95;;;6.20;;
4517;SDS011;2271;49.464;11.070;2023-07-24T03:51:24;7.93;;;5.70;;
4517;SDS011;2271;49.464;11.070;2023-07-24T03:53:49;11.30;;;6.47;;
4517;SDS011;2271;49.464;11.070;2023-07-24T03:56:15;10.15;;;6.47;;
4517;SDS011;2271;49.464;11.070;2023-07-24T03:58:41;8.05;;;5.50;;
4517;SDS011;2271;49.464;11.070;2023-07-24T04:01:07;9.40;;;7.00;;
4517;SDS011;2271;49.464;11.070;2023-07-24T04:03:33;9.85;;;6.10;;
4517;SDS011;2271;49.464;11.070;2023-07-24T04:05:59;8.63;;;6.15;;
4517;SDS011;2271;49.464;11.070;2023-07-24T04:08:25;8.05;;;4.97;;
4517;SDS011;2271;49.464;11.070;2023-07-24T04:10:50;7.05;;;6.00;;
4517;SDS011;2271;49.464;11.070;2023-07-24T04:13:16;11.35;;;6.57;;
4517;SDS011;2271;49.464;11.070;2023-07-24T04:15:42;8.32;;;6.63;;
4517;SDS011;2271;49.464;11.070;2023-07-24T04:18:09;7.40;;;5.57;;
4517;SDS011;2271;49.464;11.070;2023-07-24T04:20:35;9.90;;;6.57;;
4517;SDS011;2271;49.464;11.070;2023-07-24T04:23:01;10.18;;;6.40;;
4517;SDS011;2271;49.464;11.070;2023-07-24T04:25:26;11.98;;;6.53;;
4517;SDS011;2271;49.464;11.070;2023-07-24T04:27:52;9.70;;;6.32;;
4517;SDS011;2271;49.464;11.070;2023-07-24T04:30:17;10.77;;;6.53;;
4517;SDS011;2271;49.464;11.070;2023-07-24T04:32:43;8.20;;;5.47;;
4517;SDS011;2271;49.464;11.070;2023-07-24T04:35:09;9.45;;;5.72;;
4517;SDS011;2271;49.464;11.070;2023-07-24T04:37:34;11.13;;;5.90;;
4517;SDS011;2271;49.464;11.070;2023-07-24T04:40:00;9.70;;;6.28;;
4517;SDS011;2271;49.464;11.070;2023-07-24T04:42:25;8.60;;;5.93;;
4517;SDS011;2271;49.464;11.070;2023-07-24T04:44:51;10.52;;;6.35;;
4517;SDS011;2271;49.464;11.070;2023-07-24T04:47:17;10.07;;;6.70;;
4517;SDS011;2271;49.464;11.070;2023-07-24T04:49:42;8.18;;;5.93;;
4517;SDS011;2271;49.464;11.070;2023-07-24T04:52:08;8.30;;;6.00;;
4517;SDS011;2271;49.464;11.070;2023-07-24T04:54:33;13.38;;;6.43;;
4517;SDS011;2271;49.464;11.070;2023-07-24T04:56:59;8.73;;;6.78;;
4517;SDS011;2271;49.464;11.070;2023-07-24T04:59:25;9.07;;;5.97;;
4517;SDS011;2271;49.464;11.070;2023-07-24T05:01:50;8.25;;;5.68;;
4517;SDS011;2271;49.464;11.070;2023-07-24T05:04:16;9.50;;;6.65;;
4517;SDS011;2271;49.464;11.070;2023-07-24T05:06:41;11.00;;;5.85;;
4517;SDS011;2271;49.464;11.070;2023-07-24T05:09:07;10.98;;;6.30;;
4517;SDS011;2271;49.464;11.070;2023-07-24T05:11:33;10.70;;;6.40;;
4517;SDS011;2271;49.464;11.070;2023-07-24T05:13:58;11.50;;;6.35;;
4517;SDS011;2271;49.464;11.070;2023-07-24T05:16:24;9.55;;;5.97;;
4517;SDS011;2271;49.464;11.070;2023-07-24T05:18:49;9.95;;;6.70;;
4517;SDS011;2271;49.464;11.070;2023-07-24T05:21:15;11.65;;;6.47;;
4517;SDS011;2271;49.464;11.070;2023-07-24T05:23:41;11.00;;;7.70;;
4517;SDS011;2271;49.464;11.070;2023-07-24T05:26:06;9.23;;;6.47;;
4517;SDS011;2271;49.464;11.070;2023-07-24T05:28:32;9.32;;;5.85;;
4517;SDS011;2271;49.464;11.070;2023-07-24T05:31:02;7.35;;;5.65;;
4517;SDS011;2271;49.464;11.070;2023-07-24T05:33:29;10.23;;;7.18;;
4517;SDS011;2271;49.464;11.070;2023-07-24T05:36:02;14.40;;;7.38;;
4517;SDS011;2271;49.464;11.070;2023-07-24T05:38:29;11.02;;;6.85;;
4517;SDS011;2271;49.464;11.070;2023-07-24T05:40:58;11.23;;;7.53;;
4517;SDS011;2271;49.464;11.070;2023-07-24T05:43:25;12.05;;;7.78;;
4517;SDS011;2271;49.464;11.070;2023-07-24T05:45:51;10.82;;;6.68;;
4517;SDS011;2271;49.464;11.070;2023-07-24T05:48:17;10.15;;;6.60;;
4517;SDS011;2271;49.464;11.070;2023-07-24T05:50:43;9.27;;;6.05;;
4517;SDS011;2271;49.464;11.070;2023-07-24T05:53:09;12.45;;;6.72;;
4517;SDS011;2271;49.464;11.070;2023-07-24T05:55:35;9.70;;;6.40;;
4517;SDS011;2271;49.464;11.070;2023-07-24T05:58:00;8.98;;;6.40;;
4517;SDS011;2271;49.464;11.070;2023-07-24T06:00:26;15.80;;;6.80;;
4517;SDS011;2271;49.464;11.070;2023-07-24T06:02:52;9.88;;;6.32;;
4517;SDS011;2271;49.464;11.070;2023-07-24T06:05:18;9.88;;;6.57;;
4517;SDS011;2271;49.464;11.070;2023-07-24T06:07:45;11.43;;;7.35;;
4517;SDS011;2271;49.464;11.070;2023-07-24T06:10:11;11.80;;;6.97;;
4517;SDS011;2271;49.464;11.070;2023-07-24T06:12:37;12.38;;;6.85;;
4517;SDS011;2271;49.464;11.070;2023-07-24T06:15:03;8.65;;;6.22;;
4517;SDS011;2271;49.464;11.070;2023-07-24T06:17:29;10.60;;;6.30;;
4517;SDS011;2271;49.464;11.070;2023-07-24T06:19:54;8.65;;;5.63;;
4517;SDS011;2271;49.464;11.070;2023-07-24T06:22:20;8.57;;;6.15;;
4517;SDS011;2271;49.464;11.070;2023-07-24T06:24:45;11.15;;;5.68;;
4517;SDS011;2271;49.464;11.070;2023-07-24T06:27:11;9.88;;;5.97;;
4517;SDS011;2271;49.464;11.070;2023-07-24T06:29:37;10.85;;;6.60;;
4517;SDS011;2271;49.464;11.070;2023-07-24T06:32:03;9.23;;;5.90;;
4517;SDS011;2271;49.464;11.070;2023-07-24T06:34:28;10.38;;;6.75;;
4517;SDS011;2271;49.464;11.070;2023-07-24T06:36:54;10.88;;;6.78;;
4517;SDS011;2271;49.464;11.070;2023-07-24T06:39:20;11.98;;;6.70;;
4517;SDS011;2271;49.464;11.070;2023-07-24T06:41:45;12.70;;;6.32;;
4517;SDS011;2271;49.464;11.070;2023-07-24T06:44:11;10.18;;;6.43;;
4517;SDS011;2271;49.464;11.070;2023-07-24T06:46:37;10.52;;;6.13;;
4517;SDS011;2271;49.464;11.070;2023-07-24T06:49:02;10.40;;;6.30;;
4517;SDS011;2271;49.464;11.070;2023-07-24T06:51:28;10.30;;;5.75;;
4517;SDS011;2271;49.464;11.070;2023-07-24T06:53:54;11.50;;;5.43;;
4517;SDS011;2271;49.464;11.070;2023-07-24T06:56:19;11.15;;;5.90;;
4517;SDS011;2271;49.464;11.070;2023-07-24T06:58:45;9.70;;;6.07;;
4517;SDS011;2271;49.464;11.070;2023-07-24T07:01:10;11.23;;;6.57;;
4517;SDS011;2271;49.464;11.070;2023-07-24T07:03:36;9.23;;;5.95;;
4517;SDS011;2271;49.464;11.070;2023-07-24T07:06:02;10.18;;;6.30;;
4517;SDS011;2271;49.464;11.070;2023-07-24T07:08:31;9.63;;;6.68;;
4517;SDS011;2271;49.464;11.070;2023-07-24T07:10:57;9.13;;;5.55;;
4517;SDS011;2271;49.464;11.070;2023-07-24T07:13:26;9.55;;;6.53;;
4517;SDS011;2271;49.464;11.070;2023-07-24T07:15:52;10.88;;;6.07;;
4517;SDS011;2271;49.464;11.070;2023-07-24T07:18:17;8.15;;;6.03;;
4517;SDS011;2271;49.464;11.070;2023-07-24T07:20:46;10.98;;;6.80;;
4517;SDS011;2271;49.464;11.070;2023-07-24T07:23:16;12.35;;;6.60;;
4517;SDS011;2271;49.464;11.070;2023-07-24T07:25:42;8.90;;;5.82;;
4517;SDS011;2271;49.464;11.070;2023-07-24T07:28:10;9.85;;;6.40;;
4517;SDS011;2271;49.464;11.070;2023-07-24T07:30:39;10.25;;;6.43;;
4517;SDS011;2271;49.464;11.070;2023-07-24T07:33:05;9.75;;;6.25;;
4517;SDS011;2271;49.464;11.070;2023-07-24T07:35:31;12.48;;;6.63;;
4517;SDS011;2271;49.464;11.070;2023-07-24T07:37:57;8.90;;;6.60;;
4517;SDS011;2271;49.464;11.070;2023-07-24T07:40:23;9.52;;;6.70;;
4517;SDS011;2271;49.464;11.070;2023-07-24T07:42:49;11.50;;;6.38;;
4517;SDS011;2271;49.464;11.070;2023-07-24T07:45:14;9.50;;;6.35;;
4517;SDS011;2271;49.464;11.070;2023-07-24T07:47:40;7.80;;;6.10;;
4517;SDS011;2271;49.464;11.070;2023-07-24T07:50:06;8.93;;;5.68;;
4517;SDS011;2271;49.464;11.070;2023-07-24T07:52:31;10.13;;;6.22;;
4517;SDS011;2271;49.464;11.070;2023-07-24T07:54:57;14.52;;;6.63;;
4517;SDS011;2271;49.464;11.070;2023-07-24T07:57:22;10.23;;;6.03;;
4517;SDS011;2271;49.464;11.070;2023-07-24T07:59:48;9.93;;;6.53;;
4517;SDS011;2271;49.464;11.070;2023-07-24T08:02:14;11.43;;;6.88;;
4517;SDS011;2271;49.464;11.070;2023-07-24T08:04:39;13.38;;;7.07;;
4517;SDS011;2271;49.464;11.070;2023-07-24T08:07:05;12.82;;;6.80;;
4517;SDS011;2271;49.464;11.070;2023-07-24T08:09:30;9.10;;;5.68;;
4517;SDS011;2271;49.464;11.070;2023-07-24T08:11:57;9.48;;;5.97;;
4517;SDS011;2271;49.464;11.070;2023-07-24T08:14:23;11.45;;;6.38;;
4517;SDS011;2271;49.464;11.070;2023-07-24T08:16:49;14.52;;;6.80;;
4517;SDS011;2271;49.464;11.070;2023-07-24T08:19:14;13.73;;;7.47;;
4517;SDS011;2271;49.464;11.070;2023-07-24T08:21:40;11.30;;;6.43;;
4517;SDS011;2271;49.464;11.070;2023-07-24T08:24:06;10.27;;;6.15;;
4517;SDS011;2271;49.464;11.070;2023-07-24T08:26:32;11.35;;;7.00;;
4517;SDS011;2271;49.464;11.070;2023-07-24T08:28:57;10.90;;;7.15;;
4517;SDS011;2271;49.464;11.070;2023-07-24T08:31:23;11.75;;;5.82;;
4517;SDS011;2271;49.464;11.070;2023-07-24T08:33:49;10.15;;;6.50;;
4517;SDS011;2271;49.464;11.070;2023-07-24T08:36:14;7.43;;;6.10;;
4517;SDS011;2271;49.464;11.070;2023-07-24T08:38:40;9.55;;;6.55;;
4517;SDS011;2271;49.464;11.070;2023-07-24T08:41:08;15.07;;;6.60;;
4517;SDS011;2271;49.464;11.070;2023-07-24T08:43:38;11.82;;;6.82;;
4517;SDS011;2271;49.464;11.070;2023-07-24T08:46:05;10.77;;;6.82;;
4517;SDS011;2271;49.464;11.070;2023-07-24T08:48:33;11.48;;;7.43;;
4517;SDS011;2271;49.464;11.070;2023-07-24T08:51:04;13.27;;;7.40;;
4517;SDS011;2271;49.464;11.070;2023-07-24T08:53:30;11.32;;;6.22;;
4517;SDS011;2271;49.464;11.070;2023-07-24T08:56:00;16.77;;;7.30;;
4517;SDS011;2271;49.464;11.070;2023-07-24T08:58:30;12.52;;;6.57;;
4517;SDS011;2271;49.464;11.070;2023-07-24T09:00:57;12.75;;;7.57;;
4517;SDS011;2271;49.464;11.070;2023-07-24T09:03:23;11.80;;;7.10;;
4517;SDS011;2271;49.464;11.070;2023-07-24T09:05:49;14.18;;;6.90;;
4517;SDS011;2271;49.464;11.070;2023-07-24T09:08:15;14.07;;;7.63;;
4517;SDS011;2271;49.464;11.070;2023-07-24T09:10:41;13.63;;;6.07;;
4517;SDS011;2271;49.464;11.070;2023-07-24T09:13:07;12.30;;;7.10;;
4517;SDS011;2271;49.464;11.070;2023-07-24T09:15:42;12.80;;;7.65;;
4517;SDS011;2271;49.464;11.070;2023-07-24T09:18:09;13.23;;;7.47;;
4517;SDS011;2271;49.464;11.070;2023-07-24T09:20:39;11.77;;;6.70;;
4517;SDS011;2271;49.464;11.070;2023-07-24T09:23:06;9.90;;;6.32;;
4517;SDS011;2271;49.464;11.070;2023-07-24T09:25:36;9.48;;;6.80;;
4517;SDS011;2271;49.464;11.070;2023-07-24T09:28:12;9.75;;;6.63;;
4517;SDS011;2271;49.464;11.070;2023-07-24T09:30:39;10.68;;;6.38;;
4517;SDS011;2271;49.464;11.070;2023-07-24T09:33:06;9.35;;;6.78;;
4517;SDS011;2271;49.464;11.070;2023-07-24T09:35:32;10.27;;;6.70;;
4517;SDS011;2271;49.464;11.070;2023-07-24T09:38:07;10.25;;;6.47;;
4517;SDS011;2271;49.464;11.070;2023-07-24T09:40:37;10.50;;;6.85;;
4517;SDS011;2271;49.464;11.070;2023-07-24T09:43:41;9.07;;;7.07;;
4517;SDS011;2271;49.464;11.070;2023-07-24T09:46:03;9.98;;;6.47;;
4517;SDS011;2271;49.464;11.070;2023-07-24T09:48:31;10.63;;;7.50;;
4517;SDS011;2271;49.464;11.070;2023-07-24T09:50:58;9.85;;;7.03;;
4517;SDS011;2271;49.464;11.070;2023-07-24T09:53:43;11.63;;;6.93;;
4517;SDS011;2271;49.464;11.070;2023-07-24T09:56:17;11.07;;;7.00;;
4517;SDS011;2271;49.464;11.070;2023-07-24T09:58:43;10.00;;;6.50;;
4517;SDS011;2271;49.464;11.070;2023-07-24T10:01:10;10.15;;;6.45;;
4517;SDS011;2271;49.464;11.070;2023-07-24T10:03:38;11.60;;;6.82;;
4517;SDS011;2271;49.464;11.070;2023-07-24T10:06:17;10.35;;;6.72;;
4517;SDS011;2271;49.464;11.070;2023-07-24T10:08:43;9.85;;;6.50;;
4517;SDS011;2271;49.464;11.070;2023-07-24T10:11:10;10.65;;;6.63;;
4517;SDS011;2271;49.464;11.070;2023-07-24T10:13:38;10.65;;;6.93;;
4517;SDS011;2271;49.464;11.070;2023-07-24T10:16:04;11.70;;;6.78;;
4517;SDS011;2271;49.464;11.070;2023-07-24T10:18:32;9.68;;;6.65;;
4517;SDS011;2271;49.464;11.070;2023-07-24T10:21:02;9.88;;;7.20;;
4517;SDS011;2271;49.464;11.070;2023-07-24T10:23:36;10.60;;;6.90;;
4517;SDS011;2271;49.464;11.070;2023-07-24T10:26:05;8.65;;;6.25;;
4517;SDS011;2271;49.464;11.070;2023-07-24T10:28:32;10.32;;;6.93;;
4517;SDS011;2271;49.464;11.070;2023-07-24T10:31:00;13.27;;;7.65;;
4517;SDS011;2271;49.464;11.070;2023-07-24T10:33:29;12.07;;;7.05;;
4517;SDS011;2271;49.464;11.070;2023-07-24T10:36:06;10.98;;;6.65;;
4517;SDS011;2271;49.464;11.070;2023-07-24T10:38:39;9.95;;;6.97;;
4517;SDS011;2271;49.464;11.070;2023-07-24T10:41:06;9.05;;;6.00;;
4517;SDS011;2271;49.464;11.070;2023-07-24T10:43:43;7.78;;;6.45;;
4517;SDS011;2271;49.464;11.070;2023-07-24T10:46:10;10.02;;;7.30;;
4517;SDS011;2271;49.464;11.070;2023-07-24T10:48:36;10.27;;;6.45;;
4517;SDS011;2271;49.464;11.070;2023-07-24T10:51:08;10.18;;;7.07;;
4517;SDS011;2271;49.464;11.070;2023-07-24T10:53:35;11.40;;;6.88;;
4517;SDS011;2271;49.464;11.070;2023-07-24T10:56:06;11.23;;;7.30;;
4517;SDS011;2271;49.464;11.070;2023-07-24T10:58:33;10.50;;;6.82;;
4517;SDS011;2271;49.464;11.070;2023-07-24T11:01:02;17.08;;;6.63;;
4517;SDS011;2271;49.464;11.070;2023-07-24T11:03:29;10.73;;;7.05;;
4517;SDS011;2271;49.464;11.070;2023-07-24T11:05:56;9.25;;;6.78;;
4517;SDS011;2271;49.464;11.070;2023-07-24T11:08:22;10.27;;;6.82;;
4517;SDS011;2271;49.464;11.070;2023-07-24T11:10:52;11.13;;;6.93;;
4517;SDS011;2271;49.464;11.070;2023-07-24T11:13:20;11.82;;;7.47;;
4517;SDS011;2271;49.464;11.070;2023-07-24T11:15:47;13.23;;;7.72;;
4517;SDS011;2271;49.464;11.070;2023-07-24T11:18:14;10.82;;;7.78;;
4517;SDS011;2271;49.464;11.070;2023-07-24T11:20:44;16.50;;;7.25;;
4517;SDS011;2271;49.464;11.070;2023-07-24T11:23:11;9.35;;;6.15;;
4517;SDS011;2271;49.464;11.070;2023-07-24T11:25:37;10.27;;;6.55;;
4517;SDS011;2271;49.464;11.070;2023-07-24T11:28:04;12.10;;;8.00;;
4517;SDS011;2271;49.464;11.070;2023-07-24T11:30:31;10.90;;;6.80;;
4517;SDS011;2271;49.464;11.070;2023-07-24T11:32:57;10.15;;;6.40;;
4517;SDS011;2271;49.464;11.070;2023-07-24T11:35:26;8.82;;;6.68;;
4517;SDS011;2271;49.464;11.070;2023-07-24T11:37:52;9.80;;;6.78;;
4517;SDS011;2271;49.464;11.070;2023-07-24T11:40:17;9.50;;;6.55;;
4517;SDS011;2271;49.464;11.070;2023-07-24T11:42:45;9.30;;;7.25;;
4517;SDS011;2271;49.464;11.070;2023-07-24T11:45:12;13.27;;;6.88;;
4517;SDS011;2271;49.464;11.070;2023-07-24T11:47:41;11.25;;;7.40;;
4517;SDS011;2271;49.464;11.070;2023-07-24T11:50:07;11.93;;;6.93;;
4517;SDS011;2271;49.464;11.070;2023-07-24T11:52:39;11.20;;;6.97;;
4517;SDS011;2271;49.464;11.070;2023-07-24T11:55:08;10.85;;;6.70;;
4517;SDS011;2271;49.464;11.070;2023-07-24T11:57:38;13.40;;;6.72;;
4517;SDS011;2271;49.464;11.070;2023-07-24T12:00:05;13.63;;;7.07;;
4517;SDS011;2271;49.464;11.070;2023-07-24T12:02:34;9.30;;;6.65;;
4517;SDS011;2271;49.464;11.070;2023-07-24T12:04:59;10.48;;;6.88;;
4517;SDS011;2271;49.464;11.070;2023-07-24T12:07:32;10.05;;;6.18;;
4517;SDS011;2271;49.464;11.070;2023-07-24T12:10:00;10.00;;;6.00;;
4517;SDS011;2271;49.464;11.070;2023-07-24T12:12:36;9.98;;;5.28;;
4517;SDS011;2271;49.464;11.070;2023-07-24T12:15:07;7.00;;;5.28;;
4517;SDS011;2271;49.464;11.070;2023-07-24T12:17:33;5.75;;;4.60;;
4517;SDS011;2271;49.464;11.070;2023-07-24T12:19:59;6.78;;;4.85;;
4517;SDS011;2271;49.464;11.070;2023-07-24T12:22:25;5.40;;;4.47;;
4517;SDS011;2271;49.464;11.070;2023-07-24T12:24:50;6.82;;;4.35;;
4517;SDS011;2271;49.464;11.070;2023-07-24T12:27:16;6.03;;;4.53;;
4517;SDS011;2271;49.464;11.070;2023-07-24T12:29:41;5.13;;;3.88;;
4517;SDS011;2271;49.464;11.070;2023-07-24T12:32:07;5.20;;;3.83;;
4517;SDS011;2271;49.464;11.070;2023-07-24T12:34:33;6.25;;;3.85;;
4517;SDS011;2271;49.464;11.070;2023-07-24T12:36:58;6.75;;;3.92;;
4517;SDS011;2271;49.464;11.070;2023-07-24T12:39:24;5.00;;;4.07;;
4517;SDS011;2271;49.464;11.070;2023-07-24T12:41:49;5.75;;;4.35;;
4517;SDS011;2271;49.464;11.070;2023-07-24T12:44:15;5.70;;;3.88;;
4517;SDS011;2271;49.464;11.070;2023-07-24T12:46:41;5.45;;;3.72;;
4517;SDS011;2271;49.464;11.070;2023-07-24T12:49:06;4.25;;;3.67;;
4517;SDS011;2271;49.464;11.070;2023-07-24T12:51:32;5.68;;;3.45;;
4517;SDS011;2271;49.464;11.070;2023-07-24T12:53:57;6.07;;;4.00;;
4517;SDS011;2271;49.464;11.070;2023-07-24T12:56:23;5.60;;;4.13;;
4517;SDS011;2271;49.464;11.070;2023-07-24T12:58:48;6.95;;;4.50;;
4517;SDS011;2271;49.464;11.070;2023-07-24T13:01:14;7.57;;;4.28;;
4517;SDS011;2271;49.464;11.070;2023-07-24T13:03:40;5.88;;;4.50;;
4517;SDS011;2271;49.464;11.070;2023-07-24T13:06:05;5.97;;;4.85;;
4517;SDS011;2271;49.464;11.070;2023-07-24T13:08:31;5.95;;;4.32;;
4517;SDS011;2271;49.464;11.070;2023-07-24T13:10:56;10.38;;;5.25;;
4517;SDS011;2271;49.464;11.070;2023-07-24T13:13:22;9.65;;;5.25;;
4517;SDS011;2271;49.464;11.070;2023-07-24T13:15:48;7.82;;;5.95;;
4517;SDS011;2271;49.464;11.070;2023-07-24T13:18:16;7.20;;;5.38;;
4517;SDS011;2271;49.464;11.070;2023-07-24T13:20:42;7.28;;;5.55;;
4517;SDS011;2271;49.464;11.070;2023-07-24T13:23:07;8.77;;;5.43;;
4517;SDS011;2271;49.464;11.070;2023-07-24T13:25:33;8.40;;;5.03;;
4517;SDS011;2271;49.464;11.070;2023-07-24T13:27:59;8.48;;;5.03;;
4517;SDS011;2271;49.464;11.070;2023-07-24T13:30:24;7.20;;;5.82;;
4517;SDS011;2271;49.464;11.070;2023-07-24T13:32:50;5.43;;;4.32;;
4517;SDS011;2271;49.464;11.070;2023-07-24T13:35:16;7.22;;;4.40;;
4517;SDS011;2271;49.464;11.070;2023-07-24T13:37:41;6.25;;;4.40;;
4517;SDS011;2271;49.464;11.070;2023-07-24T13:40:07;6.45;;;4.50;;
4517;SDS011;2271;49.464;11.070;2023-07-24T13:42:33;6.03;;;4.57;;
4517;SDS011;2271;49.464;11.070;2023-07-24T13:44:59;8.35;;;4.60;;
4517;SDS011;2271;49.464;11.070;2023-07-24T13:47:25;6.43;;;4.47;;
4517;SDS011;2271;49.464;11.070;2023-07-24T13:49:50;12.60;;;5.28;;
4517;SDS011;2271;49.464;11.070;2023-07-24T13:52:16;7.10;;;4.75;;
4517;SDS011;2271;49.464;11.070;2023-07-24T13:54:42;8.20;;;4.68;;
4517;SDS011;2271;49.464;11.070;2023-07-24T13:57:07;7.80;;;4.47;;
4517;SDS011;2271;49.464;11.070;2023-07-24T13:59:34;9.43;;;4.50;;
4517;SDS011;2271;49.464;11.070;2023-07-24T14:02:01;5.35;;;4.50;;
4517;SDS011;2271;49.464;11.070;2023-07-24T14:04:27;4.07;;;3.63;;
4517;SDS011;2271;49.464;11.070;2023-07-24T14:06:52;5.03;;;3.60;;
4517;SDS011;2271;49.464;11.070;2023-07-24T14:09:18;6.15;;;4.50;;
4517;SDS011;2271;49.464;11.070;2023-07-24T14:11:44;9.27;;;4.32;;
4517;SDS011;2271;49.464;11.070;2023-07-24T14:14:09;8.50;;;4.13;;
4517;SDS011;2271;49.464;11.070;2023-07-24T14:16:36;7.30;;;5.10;;
4517;SDS011;2271;49.464;11.070;2023-07-24T14:19:02;4.82;;;3.38;;
4517;SDS011;2271;49.464;11.070;2023-07-24T14:21:27;5.68;;;3.45;;
4517;SDS011;2271;49.464;11.070;2023-07-24T14:23:53;6.85;;;3.95;;
4517;SDS011;2271;49.464;11.070;2023-07-24T14:26:18;6.18;;;3.95;;
4517;SDS011;2271;49.464;11.070;2023-07-24T14:28:44;6.50;;;4.35;;
4517;SDS011;2271;49.464;11.070;2023-07-24T14:31:10;6.72;;;4.45;;
4517;SDS011;2271;49.464;11.070;2023-07-24T14:33:36;4.97;;;3.88;;
4517;SDS011;2271;49.464;11.070;2023-07-24T14:36:01;6.03;;;4.13;;
4517;SDS011;2271;49.464;11.070;2023-07-24T14:38:27;8.80;;;4.40;;
4517;SDS011;2271;49.464;11.070;2023-07-24T14:40:53;5.28;;;3.85;;
4517;SDS011;2271;49.464;11.070;2023-07-24T14:43:19;5.93;;;4.05;;
4517;SDS011;2271;49.464;11.070;2023-07-24T14:45:44;7.32;;;4.13;;
4517;SDS011;2271;49.464;11.070;2023-07-24T14:48:10;8.95;;;4.60;;
4517;SDS011;2271;49.464;11.070;2023-07-24T14:50:37;6.68;;;4.72;;
4517;SDS011;2271;49.464;11.070;2023-07-24T14:53:03;5.97;;;4.20;;
4517;SDS011;2271;49.464;11.070;2023-07-24T14:55:29;7.00;;;4.72;;
4517;SDS011;2271;49.464;11.070;2023-07-24T14:57:54;7.70;;;4.22;;